Time;durP1;ratioP1;P1;durP2;ratioP2;P2;SDS_P1;SDS_P2;PMS_P1;PMS_P2;Temp;Humidity;BMP_temperature;BMP_pressure;BME280_temperature;BME280_humidity;BME280_pressure;Samples;Min_cycle;Max_cycle;Signal;HPM_P1;HPM_P2
2023/09/02 00:22:49;;;;;;;4.60;3.97;;;16.90;99.90;;;;;;4923408;29;20448;-80
2023/09/02 00:29:51;;;;;;;7.83;3.50;;;16.80;99.90;;;;;;4942783;28;20482;-79
2023/09/02 00:33:00;;;;;;;4.13;3.60;;;16.80;99.90;;;;;;4876608;29;20962;-78
2023/09/02 00:42:46;;;;;;;4.70;3.53;;;16.60;99.90;;;;;;5020509;28;20465;-79
2023/09/02 00:45:49;;;;;;;4.73;4.20;;;16.60;99.90;;;;;;5075541;28;20812;-78
2023/09/02 01:02:57;;;;;;;6.40;4.60;;;16.50;99.90;;;;;;4966881;28;20448;-79
2023/09/02 01:06:00;;;;;;;7.00;4.20;;;16.50;99.90;;;;;;4945952;28;20464;-79
2023/09/02 01:18:50;;;;;;;6.57;4.10;;;16.40;99.90;;;;;;4994976;28;20503;-79
2023/09/02 01:22:15;;;;;;;8.20;3.97;;;16.40;99.90;;;;;;5095165;28;20443;-79
2023/09/02 01:25:48;;;;;;;4.30;4.00;;;16.40;99.90;;;;;;4990264;28;20508;-78
2023/09/02 01:29:09;;;;;;;3.60;3.30;;;16.40;99.90;;;;;;4947115;28;20493;-80
2023/09/02 01:32:31;;;;;;;3.67;3.37;;;16.30;99.90;;;;;;5086690;28;20466;-78
2023/09/02 01:35:42;;;;;;;3.10;2.80;;;16.30;99.90;;;;;;5109706;28;20471;-78
2023/09/02 01:45:57;;;;;;;3.90;3.23;;;16.30;99.90;;;;;;5013338;28;20499;-82
2023/09/02 01:59:30;;;;;;;3.07;2.77;;;16.20;99.90;;;;;;4920006;29;20465;-79
2023/09/02 02:02:53;;;;;;;;;;;;;;;;;;;;;
2023/09/02 02:26:18;;;;;;;3.40;3.10;;;15.80;99.90;;;;;;5016303;28;20438;-78
2023/09/02 02:29:12;;;;;;;3.30;2.93;;;15.90;99.90;;;;;;5040057;28;20549;-78
2023/09/02 02:35:14;;;;;;;3.40;3.13;;;15.80;99.90;;;;;;5100047;28;21101;-81
2023/09/02 02:37:52;;;;;;;5.43;2.60;;;15.80;99.90;;;;;;5124946;28;20831;-78
2023/09/02 02:40:44;;;;;;;;;;;;;;;;;;;;;
2023/09/02 02:43:26;;;;;;;3.47;3.17;;;15.80;99.90;;;;;;5122256;28;20450;-78
2023/09/02 03:07:18;;;;;;;3.50;3.20;;;15.60;99.90;;;;;;5025777;28;20456;-78
2023/09/02 03:10:22;;;;;;;2.67;2.47;;;15.50;99.90;;;;;;5070556;28;20481;-80
2023/09/02 03:43:11;;;;;;;4.70;4.23;;;15.30;99.90;;;;;;5081207;28;20841;-79
2023/09/02 03:46:15;;;;;;;4.53;4.03;;;15.20;99.90;;;;;;5122966;28;20447;-81
2023/09/02 03:49:09;;;;;;;4.27;3.87;;;15.30;99.90;;;;;;5122545;28;20871;-81
2023/09/02 03:51:59;;;;;;;4.73;4.33;;;15.30;99.90;;;;;;5121727;28;21000;-78
2023/09/02 03:54:58;;;;;;;4.73;4.17;;;15.30;99.90;;;;;;5122235;28;20443;-79
2023/09/02 03:57:45;;;;;;;4.50;3.97;;;15.30;99.90;;;;;;5122442;28;20473;-78
2023/09/02 04:00:46;;;;;;;4.20;3.90;;;15.30;99.90;;;;;;5121300;28;20511;-79
2023/09/02 04:06:50;;;;;;;4.60;4.30;;;15.20;99.90;;;;;;5123124;28;20938;-79
2023/09/02 04:10:04;;;;;;;;;;;;;;;;;;;;;
2023/09/02 04:13:09;;;;;;;6.90;3.87;;;15.10;99.90;;;;;;5132082;28;20451;-79
2023/09/02 04:16:46;;;;;;;3.97;3.67;;;15.00;99.90;;;;;;5130696;28;20470;-81
2023/09/02 04:26:19;;;;;;;4.10;3.70;;;15.00;99.90;;;;;;4977835;28;20466;-80
2023/09/02 04:29:29;;;;;;;4.10;3.83;;;15.00;99.90;;;;;;5018754;28;20484;-79
2023/09/02 04:32:33;;;;;;;4.97;4.50;;;14.90;99.90;;;;;;5021985;28;20445;-79
2023/09/02 04:35:39;;;;;;;6.87;4.10;;;14.90;99.90;;;;;;5020678;28;20451;-80
2023/09/02 04:44:56;;;;;;;5.10;4.60;;;15.00;99.90;;;;;;5105436;28;20436;-79
2023/09/02 04:54:03;;;;;;;4.90;4.40;;;15.00;99.90;;;;;;5068411;28;20459;-80
2023/09/02 05:00:34;;;;;;;4.77;4.23;;;14.60;99.90;;;;;;5084878;28;20439;-78
2023/09/02 05:03:37;;;;;;;6.13;4.03;;;15.00;99.90;;;;;;5100080;28;20829;-78
2023/09/02 05:06:39;;;;;;;;;;;;;;;;;;;;;
2023/09/02 05:12:55;;;;;;;6.27;4.37;;;14.90;99.90;;;;;;5055968;28;20431;-78
2023/09/02 05:15:59;;;;;;;4.83;4.37;;;14.90;99.90;;;;;;5016693;28;20514;-78
2023/09/02 05:18:54;;;;;;;5.03;4.30;;;14.90;99.90;;;;;;5019601;28;20494;-78
2023/09/02 05:21:44;;;;;;;6.43;4.60;;;15.00;99.90;;;;;;5019926;28;20539;-78
2023/09/02 05:24:29;;;;;;;4.93;4.57;;;15.00;99.90;;;;;;5052571;28;20892;-78
2023/09/02 05:27:24;;;;;;;4.67;4.30;;;15.10;99.90;;;;;;5105031;28;20495;-78
2023/09/02 05:30:12;;;;;;;4.70;4.30;;;15.10;99.90;;;;;;5117907;28;20478;-78
2023/09/02 05:32:52;;;;;;;5.63;4.97;;;15.20;99.90;;;;;;5117074;28;20443;-78
2023/09/02 05:35:45;;;;;;;5.00;4.50;;;15.30;99.90;;;;;;5115864;28;20542;-78
2023/09/02 05:38:33;;;;;;;7.43;4.73;;;15.30;99.90;;;;;;5115814;28;20547;-77
2023/09/02 05:41:43;;;;;;;5.33;4.93;;;15.30;99.90;;;;;;5114793;28;20537;-77
2023/09/02 05:44:38;;;;;;;6.03;4.00;;;15.40;99.90;;;;;;5115134;28;20444;-78
2023/09/02 05:47:23;;;;;;;5.20;4.70;;;15.50;99.90;;;;;;5113649;28;20463;-80
2023/09/02 05:52:41;;;;;;;5.20;4.80;;;15.60;99.90;;;;;;5094618;28;20442;-78
2023/09/02 05:55:20;;;;;;;4.97;4.47;;;15.70;99.90;;;;;;5112940;28;20530;-78
2023/09/02 05:58:05;;;;;;;5.07;4.67;;;15.80;99.90;;;;;;5108679;28;20567;-77
2023/09/02 06:00:48;;;;;;;6.73;4.43;;;15.90;99.90;;;;;;5113612;28;20424;-78
2023/09/02 06:03:34;;;;;;;6.03;4.60;;;16.00;99.90;;;;;;5100428;28;20459;-78
2023/09/02 06:06:19;;;;;;;8.70;4.60;;;16.20;99.90;;;;;;5109756;28;20539;-78
2023/09/02 06:08:50;;;;;;;5.47;3.80;;;16.20;99.90;;;;;;5097373;28;20479;-79
2023/09/02 06:14:35;;;;;;;12.80;9.30;;;16.40;99.90;;;;;;5106202;28;20442;-78
2023/09/02 06:17:20;;;;;;;7.13;4.23;;;16.50;99.90;;;;;;5130240;28;20483;-78
2023/09/02 06:20:09;;;;;;;6.80;5.33;;;16.60;99.90;;;;;;5125498;28;20451;-79
2023/09/02 06:23:07;;;;;;;6.57;5.97;;;16.70;99.90;;;;;;5128323;28;20445;-78
2023/09/02 06:25:37;;;;;;;10.07;9.00;;;16.70;99.90;;;;;;5117455;28;20458;-80
2023/09/02 06:28:14;;;;;;;6.63;4.70;;;16.70;99.90;;;;;;5117486;28;20645;-79
2023/09/02 06:33:58;;;;;;;4.20;3.87;;;16.90;99.90;;;;;;5119830;28;20444;-78
2023/09/02 06:36:38;;;;;;;4.70;3.83;;;17.00;99.90;;;;;;5118425;28;20485;-79
2023/09/02 06:39:30;;;;;;;6.80;5.97;;;17.10;99.90;;;;;;5118924;28;20470;-79
2023/09/02 06:42:04;;;;;;;6.30;5.70;;;17.20;99.90;;;;;;5117865;28;20451;-81
2023/09/02 06:44:34;;;;;;;4.13;3.83;;;17.30;99.90;;;;;;5117016;28;20469;-79
2023/09/02 06:47:14;;;;;;;4.37;3.97;;;17.40;99.90;;;;;;5115203;28;20837;-80
2023/09/02 06:49:57;;;;;;;3.80;3.43;;;17.40;99.90;;;;;;5117846;28;20715;-78
2023/09/02 06:52:37;;;;;;;6.27;4.03;;;17.50;99.90;;;;;;5119029;28;20454;-78
2023/09/02 06:55:19;;;;;;;9.00;3.70;;;17.50;99.90;;;;;;5119088;28;20801;-80
2023/09/02 07:01:43;;;;;;;;;;;;;;;;;;;;;
2023/09/02 07:10:57;;;;;;;6.10;4.17;;;18.00;99.90;;;;;;5109756;28;20438;-79
2023/09/02 07:13:45;;;;;;;3.63;3.43;;;18.20;99.90;;;;;;5118780;28;20541;-81
2023/09/02 07:16:15;;;;;;;3.80;3.50;;;18.20;99.90;;;;;;5118132;28;20703;-79
2023/09/02 07:18:46;;;;;;;4.10;3.80;;;18.30;99.90;;;;;;5121042;28;20441;-80
2023/09/02 07:21:21;;;;;;;4.40;3.80;;;18.30;99.90;;;;;;5123418;28;20451;-77
2023/09/02 07:23:53;;;;;;;5.60;4.10;;;18.40;99.90;;;;;;5117871;28;20518;-79
2023/09/02 07:26:27;;;;;;;4.30;4.00;;;18.50;99.90;;;;;;5118927;28;20436;-80
2023/09/02 07:29:06;;;;;;;;;;;;;;;;;;;;;
2023/09/02 07:31:38;;;;;;;3.40;3.10;;;18.70;99.90;;;;;;5119404;28;20778;-80
2023/09/02 07:34:06;;;;;;;4.60;3.60;;;18.70;99.90;;;;;;5121632;28;20480;-79
2023/09/02 07:36:41;;;;;;;4.20;3.60;;;19.10;99.90;;;;;;5118070;28;20505;-80
2023/09/02 07:39:10;;;;;;;10.33;5.17;;;19.00;99.90;;;;;;5127005;28;20446;-81
2023/09/02 07:44:27;;;;;;;4.50;3.17;;;19.20;99.90;;;;;;5123206;28;20474;-80
2023/09/02 07:46:55;;;;;;;3.77;3.50;;;19.30;99.90;;;;;;5125707;28;20462;-80
2023/09/02 07:49:25;;;;;;;3.33;3.13;;;19.50;99.90;;;;;;5129474;28;20423;-81
2023/09/02 07:51:53;;;;;;;3.10;2.90;;;19.70;99.90;;;;;;5125200;28;20546;-79
2023/09/02 07:54:21;;;;;;;3.77;3.30;;;19.80;99.90;;;;;;5129182;28;20472;-82
2023/09/02 07:56:53;;;;;;;4.43;3.47;;;20.00;99.90;;;;;;5127532;28;20513;-79
2023/09/02 07:59:23;;;;;;;16.03;14.47;;;20.10;99.90;;;;;;5124830;28;20451;-80
2023/09/02 08:01:56;;;;;;;4.67;4.27;;;20.20;99.90;;;;;;5127907;28;20442;-79
2023/09/02 08:04:25;;;;;;;3.47;3.27;;;20.30;99.90;;;;;;5125139;28;20813;-80
2023/09/02 08:06:54;;;;;;;4.57;4.17;;;20.40;99.90;;;;;;5125646;28;20451;-81
2023/09/02 08:09:28;;;;;;;3.50;3.20;;;20.50;99.90;;;;;;5124892;28;20479;-80
2023/09/02 08:12:02;;;;;;;4.57;3.60;;;20.60;99.90;;;;;;5124718;28;20431;-81
2023/09/02 08:14:31;;;;;;;4.10;3.30;;;20.70;99.90;;;;;;5126823;28;20470;-79
2023/09/02 08:17:06;;;;;;;3.60;3.30;;;21.00;99.90;;;;;;5125234;28;20477;-79
2023/09/02 08:19:34;;;;;;;3.90;3.50;;;21.10;99.90;;;;;;5103522;28;20462;-80
2023/09/02 08:22:15;;;;;;;8.10;3.50;;;21.20;99.90;;;;;;5106549;28;20518;-80
2023/09/02 08:28:39;;;;;;;4.27;3.87;;;21.50;99.90;;;;;;5045461;28;20446;-80
2023/09/02 08:31:19;;;;;;;3.00;2.80;;;21.70;99.90;;;;;;5046727;28;20490;-78
2023/09/02 08:33:47;;;;;;;3.60;3.37;;;21.70;99.90;;;;;;5106737;28;20451;-77
2023/09/02 08:36:25;;;;;;;3.57;3.27;;;21.90;99.90;;;;;;5132275;28;20453;-78
2023/09/02 08:38:58;;;;;;;3.70;3.10;;;22.20;99.90;;;;;;5129916;28;21203;-80
2023/09/02 08:42:06;;;;;;;5.10;3.80;;;22.30;99.90;;;;;;5129153;28;20526;-79
2023/09/02 08:44:41;;;;;;;4.97;3.83;;;22.40;99.90;;;;;;5129524;28;20450;-81
2023/09/02 08:47:19;;;;;;;4.67;4.27;;;22.60;99.90;;;;;;5126188;28;20495;-79
2023/09/02 08:49:49;;;;;;;9.60;4.20;;;22.50;99.90;;;;;;5124427;28;20463;-79
2023/09/02 08:52:21;;;;;;;4.83;4.03;;;22.80;99.90;;;;;;5121521;28;20428;-79
2023/09/02 08:54:52;;;;;;;4.37;4.07;;;23.20;99.90;;;;;;5124086;28;20435;-78
2023/09/02 08:57:29;;;;;;;4.50;4.10;;;23.40;99.90;;;;;;5125079;28;20475;-80
2023/09/02 08:59:57;;;;;;;5.90;3.57;;;23.50;99.90;;;;;;5143596;27;20448;-79
2023/09/02 09:02:33;;;;;;;3.87;3.00;;;23.80;99.90;;;;;;5127770;28;20450;-83
2023/09/02 09:05:05;;;;;;;3.40;3.10;;;24.00;99.90;;;;;;5125725;28;20446;-80
2023/09/02 09:07:41;;;;;;;2.90;2.70;;;24.40;99.90;;;;;;5123312;28;20455;-79
2023/09/02 09:10:25;;;;;;;3.07;2.87;;;24.40;99.90;;;;;;5123485;28;20450;-78
2023/09/02 09:12:57;;;;;;;3.13;2.83;;;24.50;99.90;;;;;;5122361;28;20412;-78
2023/09/02 09:15:26;;;;;;;3.03;2.83;;;24.70;99.90;;;;;;5121505;28;20469;-78
2023/09/02 09:17:59;;;;;;;3.47;2.63;;;24.80;99.90;;;;;;5124381;28;20527;-80
2023/09/02 09:20:29;;;;;;;3.10;2.90;;;25.20;99.90;;;;;;5125142;28;20446;-79
2023/09/02 09:23:03;;;;;;;3.00;2.80;;;25.20;99.90;;;;;;5129324;28;20461;-77
2023/09/02 09:25:30;;;;;;;3.00;2.80;;;25.50;99.90;;;;;;5130100;28;20443;-80
2023/09/02 09:28:15;;;;;;;3.10;2.80;;;25.80;99.90;;;;;;5124662;28;20462;-79
2023/09/02 09:30:54;;;;;;;4.00;2.80;;;26.00;99.90;;;;;;5124554;28;20472;-80
2023/09/02 09:33:31;;;;;;;3.73;2.97;;;26.10;99.90;;;;;;5123853;28;20512;-81
2023/09/02 09:36:14;;;;;;;3.00;2.67;;;26.30;99.90;;;;;;5123085;28;20462;-79
2023/09/02 09:38:48;;;;;;;2.70;2.50;;;;;;;;;;5123698;28;20470;-78
2023/09/02 09:41:27;;;;;;;2.90;2.60;;;26.70;99.90;;;;;;5125389;28;20412;-80
2023/09/02 09:44:27;;;;;;;2.37;2.27;;;27.00;99.90;;;;;;5126778;28;20445;-81
2023/09/02 09:46:59;;;;;;;5.13;2.60;;;27.00;99.90;;;;;;5126096;28;20487;-80
2023/09/02 09:49:37;;;;;;;2.27;2.17;;;27.40;99.90;;;;;;5127467;28;20473;-81
2023/09/02 09:52:17;;;;;;;2.67;2.43;;;27.60;99.90;;;;;;5122842;28;20492;-82
2023/09/02 09:54:59;;;;;;;5.30;2.60;;;27.60;99.90;;;;;;5121037;28;20450;-81
2023/09/02 09:57:38;;;;;;;3.20;2.90;;;27.90;99.90;;;;;;5120011;28;20531;-79
2023/09/02 10:00:28;;;;;;;2.90;2.70;;;28.30;99.90;;;;;;5120066;28;20447;-80
2023/09/02 10:03:09;;;;;;;3.60;2.97;;;28.40;99.90;;;;;;5119820;28;20451;-80
2023/09/02 10:05:43;;;;;;;3.93;2.23;;;28.10;99.90;;;;;;5121524;28;20458;-80
2023/09/02 10:08:19;;;;;;;2.80;2.50;;;28.20;99.90;;;;;;5124985;28;20467;-79
2023/09/02 10:10:47;;;;;;;2.77;2.30;;;28.70;99.90;;;;;;5124833;28;20459;-79
2023/09/02 10:13:18;;;;;;;2.37;2.27;;;28.90;99.90;;;;;;5124395;28;20427;-81
2023/09/02 10:15:59;;;;;;;2.47;2.37;;;28.70;99.90;;;;;;5123629;28;20565;-82
2023/09/02 10:18:33;;;;;;;2.27;2.10;;;29.00;99.90;;;;;;5119448;28;20485;-80
2023/09/02 10:21:12;;;;;;;3.10;2.80;;;29.50;99.90;;;;;;5116111;28;20542;-80
2023/09/02 10:23:53;;;;;;;2.60;2.40;;;29.50;99.90;;;;;;5117063;28;20487;-80
2023/09/02 10:26:37;;;;;;;2.40;2.20;;;29.70;99.90;;;;;;5117717;28;20447;-80
2023/09/02 10:29:15;;;;;;;2.90;2.47;;;29.80;99.90;;;;;;5117053;28;20524;-81
2023/09/02 10:32:07;;;;;;;2.40;2.20;;;30.10;99.90;;;;;;5116382;28;20439;-82
2023/09/02 10:41:00;;;;;;;2.50;2.30;;;30.60;99.90;;;;;;5095106;28;20451;-80
2023/09/02 10:43:55;;;;;;;1.90;1.80;;;30.70;99.90;;;;;;5101694;28;20576;-79
2023/09/02 10:56:38;;;;;;;1.90;1.80;;;31.20;99.90;;;;;;5044946;28;20453;-81
2023/09/02 10:59:58;;;;;;;4.27;4.00;;;31.40;99.90;;;;;;5047180;28;20432;-78
2023/09/02 11:03:02;;;;;;;1.77;1.67;;;31.70;99.90;;;;;;5106762;28;20447;-79
2023/09/02 11:05:58;;;;;;;1.53;1.43;;;31.70;99.90;;;;;;5108414;28;20448;-80
2023/09/02 11:08:58;;;;;;;1.97;1.87;;;31.20;99.90;;;;;;5107614;28;20516;-79
2023/09/02 11:15:36;;;;;;;1.63;1.53;;;31.90;99.90;;;;;;4991521;28;20561;-80
2023/09/02 11:18:45;;;;;;;1.67;1.57;;;31.40;99.90;;;;;;5071212;28;20529;-82
2023/09/02 11:21:59;;;;;;;3.60;1.97;;;31.10;99.90;;;;;;5099791;28;20439;-81
2023/09/02 11:31:16;;;;;;;;;;;;;;;;;;;;;
2023/09/02 11:33:56;;;;;;;3.10;1.90;;;31.50;99.90;;;;;;5117347;28;20435;-80
2023/09/02 11:45:16;;;;;;;2.13;2.03;;;30.90;99.90;;;;;;5116363;28;20479;-81
2023/09/02 11:50:45;;;;;;;2.93;1.97;;;31.70;99.90;;;;;;5114047;28;20828;-79
2023/09/02 11:53:35;;;;;;;;;;;;;;;;;;;;;
2023/09/02 11:56:23;;;;;;;2.50;2.03;;;32.70;99.90;;;;;;5120393;28;20430;-83
2023/09/02 11:58:54;;;;;;;1.70;1.60;;;32.80;99.90;;;;;;5122096;28;20477;-83
2023/09/02 12:01:31;;;;;;;1.87;1.77;;;33.40;99.40;;;;;;5122444;28;20470;-80
2023/09/02 12:04:18;;;;;;;1.80;1.70;;;33.60;99.00;;;;;;5120266;28;20506;-82
2023/09/02 12:06:54;;;;;;;2.57;1.57;;;33.70;98.00;;;;;;5120770;28;20463;-82
2023/09/02 12:09:36;;;;;;;2.40;1.80;;;34.00;97.90;;;;;;5120730;28;20474;-79
2023/09/02 12:12:15;;;;;;;1.83;1.30;;;33.90;97.00;;;;;;5120380;28;20466;-83
2023/09/02 12:14:54;;;;;;;2.20;1.90;;;33.50;96.20;;;;;;5120998;28;20473;-82
2023/09/02 12:17:37;;;;;;;2.00;1.67;;;33.00;96.90;;;;;;5122893;28;20989;-83
2023/09/02 12:20:25;;;;;;;2.07;1.87;;;33.20;96.60;;;;;;5121979;28;20474;-82
2023/09/02 12:23:05;;;;;;;1.63;1.53;;;32.70;97.10;;;;;;5121874;28;20454;-83
2023/09/02 12:29:03;;;;;;;1.60;1.50;;;32.10;98.10;;;;;;5109895;28;20831;-84
2023/09/02 12:31:36;;;;;;;1.70;1.60;;;32.10;98.20;;;;;;5119938;28;20442;-82
2023/09/02 12:34:20;;;;;;;1.73;1.63;;;31.50;98.70;;;;;;5125672;28;20447;-81
2023/09/02 12:37:24;;;;;;;1.80;1.70;;;31.30;98.60;;;;;;5121258;28;20461;-83
2023/09/02 12:40:21;;;;;;;2.13;2.03;;;31.10;99.10;;;;;;5114526;28;20495;-83
2023/09/02 12:43:28;;;;;;;1.60;1.47;;;31.20;99.10;;;;;;5119159;28;20455;-83
2023/09/02 12:46:17;;;;;;;2.53;2.37;;;31.60;98.30;;;;;;5112517;28;20451;-82
2023/09/02 12:48:55;;;;;;;2.30;1.73;;;31.40;98.30;;;;;;5129250;28;20443;-81
2023/09/02 12:54:42;;;;;;;1.53;1.43;;;32.60;96.80;;;;;;5127412;28;20443;-83
2023/09/02 12:57:25;;;;;;;2.43;1.80;;;32.10;97.00;;;;;;5130341;28;20467;-81
2023/09/02 13:00:39;;;;;;;1.73;1.63;;;31.80;97.30;;;;;;5129595;28;20447;-80
2023/09/02 13:03:14;;;;;;;2.27;2.10;;;31.70;97.10;;;;;;5100303;28;20439;-81
2023/09/02 13:09:09;;;;;;;2.50;1.47;;;32.50;95.50;;;;;;5126086;28;20439;-81
2023/09/02 13:12:11;;;;;;;1.90;1.80;;;32.30;95.60;;;;;;5125439;28;20442;-80
2023/09/02 13:21:14;;;;;;;1.83;1.70;;;32.30;96.30;;;;;;5127833;28;20427;-82
2023/09/02 13:23:55;;;;;;;2.07;1.83;;;32.30;96.70;;;;;;5128717;28;20437;-82
2023/09/02 13:26:57;;;;;;;1.83;1.73;;;31.80;96.50;;;;;;5129055;28;20497;-81
2023/09/02 13:32:38;;;;;;;1.90;1.80;;;31.90;96.60;;;;;;5028287;28;20494;-83
2023/09/02 13:35:26;;;;;;;1.63;1.60;;;31.90;96.30;;;;;;5064695;28;20441;-81
2023/09/02 13:38:16;;;;;;;3.53;3.20;;;32.10;96.50;;;;;;5069572;28;20501;-81
2023/09/02 13:43:38;;;;;;;2.37;1.60;;;33.10;95.60;;;;;;5099717;28;20473;-81
2023/09/02 13:46:17;;;;;;;1.90;1.80;;;32.90;95.20;;;;;;5134784;28;20465;-81
2023/09/02 13:49:20;;;;;;;1.70;1.60;;;32.00;95.70;;;;;;5135409;28;20514;-81
2023/09/02 13:55:23;;;;;;;;;;;;;;;;;;;;;
2023/09/02 14:01:35;;;;;;;;;;;;;;;;;;;;;
2023/09/02 14:04:56;;;;;;;2.27;2.10;;;32.50;96.20;;;;;;5123304;28;20447;-81
2023/09/02 14:07:27;;;;;;;2.23;2.10;;;31.40;96.40;;;;;;5093749;28;20505;-81
2023/09/02 14:10:29;;;;;;;3.03;1.93;;;30.90;97.60;;;;;;5121043;28;20469;-82
2023/09/02 14:13:33;;;;;;;1.70;1.60;;;31.60;96.70;;;;;;5120415;28;20426;-83
2023/09/02 14:16:11;;;;;;;1.83;1.73;;;32.00;95.80;;;;;;5014343;28;20589;-83
2023/09/02 14:19:05;;;;;;;2.50;2.30;;;32.40;95.20;;;;;;5017683;28;21064;-81
2023/09/02 14:21:37;;;;;;;1.80;1.70;;;32.50;95.70;;;;;;5115946;28;20455;-82
2023/09/02 14:24:41;;;;;;;3.00;1.87;;;32.00;95.60;;;;;;5118259;28;20439;-82
2023/09/02 14:27:36;;;;;;;2.53;2.33;;;31.90;96.10;;;;;;5090602;28;20466;-82
2023/09/02 14:37:28;;;;;;;;;;;;;;;;;;;;;
2023/09/02 14:47:01;;;;;;;2.90;2.40;;;31.80;96.70;;;;;;5127160;27;20441;-79
2023/09/02 14:49:57;;;;;;;2.53;2.33;;;31.10;97.50;;;;;;5114543;28;20443;-79
2023/09/02 14:55:50;;;;;;;2.40;2.20;;;30.90;97.10;;;;;;5122723;28;20526;-82
2023/09/02 14:58:30;;;;;;;2.07;1.87;;;31.30;97.50;;;;;;5123709;28;20505;-81
2023/09/02 15:01:06;;;;;;;2.00;1.90;;;32.40;96.00;;;;;;5122956;28;20455;-80
2023/09/02 15:04:03;;;;;;;2.53;2.33;;;33.10;94.20;;;;;;5122240;28;20538;-83
2023/09/02 15:07:01;;;;;;;1.93;1.80;;;33.00;94.30;;;;;;5123401;28;20595;-81
2023/09/02 15:15:23;;;;;;;2.67;1.77;;;31.80;95.90;;;;;;5113389;28;20514;-82
2023/09/02 15:18:09;;;;;;;3.00;2.17;;;31.80;94.80;;;;;;5123910;28;20470;-83
2023/09/02 15:29:57;;;;;;;2.03;1.40;;;32.00;95.00;;;;;;5086341;28;20455;-82
2023/09/02 15:36:02;;;;;;;2.40;2.20;;;32.00;96.40;;;;;;5080254;28;21004;-82
2023/09/02 15:44:59;;;;;;;1.90;1.80;;;30.60;97.90;;;;;;5095675;28;20436;-81
2023/09/02 15:47:46;;;;;;;2.07;1.87;;;30.80;98.00;;;;;;5101052;28;20451;-81
2023/09/02 15:50:24;;;;;;;2.57;2.37;;;31.30;97.60;;;;;;5100597;28;20458;-81
2023/09/02 15:53:07;;;;;;;2.27;1.90;;;31.80;97.30;;;;;;5102811;28;20488;-83
2023/09/02 15:59:45;;;;;;;1.70;1.60;;;32.10;96.40;;;;;;5104346;28;20839;-82
2023/09/02 16:02:15;;;;;;;1.77;1.67;;;31.80;96.40;;;;;;5096301;28;20523;-81
2023/09/02 16:04:44;;;;;;;2.23;2.13;;;31.40;97.10;;;;;;5105443;28;20840;-81
2023/09/02 16:07:24;;;;;;;1.60;1.50;;;31.90;96.80;;;;;;5103955;28;20443;-81
2023/09/02 16:10:00;;;;;;;2.20;2.10;;;31.90;96.50;;;;;;5103938;28;20470;-81
2023/09/02 16:12:34;;;;;;;2.57;2.13;;;32.50;95.70;;;;;;5113003;28;20427;-80
2023/09/02 16:15:16;;;;;;;1.80;1.70;;;32.60;95.20;;;;;;5120609;28;20466;-83
2023/09/02 16:17:55;;;;;;;2.23;2.13;;;32.60;95.60;;;;;;5121688;28;20470;-79
2023/09/02 16:20:32;;;;;;;1.70;1.60;;;32.50;95.50;;;;;;5121889;28;20476;-81
2023/09/02 16:41:34;;;;;;;2.00;1.90;;;31.20;96.70;;;;;;5016900;28;20406;-81
2023/09/02 16:44:31;;;;;;;1.90;1.80;;;31.80;96.40;;;;;;5029545;28;20451;-82
2023/09/02 16:51:16;;;;;;;2.30;2.20;;;31.50;96.50;;;;;;5027090;28;21040;-83
2023/09/02 16:53:52;;;;;;;2.30;1.97;;;31.00;96.80;;;;;;5106986;28;20448;-81
2023/09/02 17:14:45;;;;;;;4.13;2.40;;;28.50;99.90;;;;;;5037622;28;20443;-80
2023/09/02 17:17:32;;;;;;;4.43;3.07;;;28.80;99.90;;;;;;5043577;28;20469;-82
2023/09/02 17:20:47;;;;;;;2.90;2.40;;;28.70;99.90;;;;;;5052305;28;20478;-80
2023/09/02 17:23:50;;;;;;;;;;;;;;;;;;;;;
2023/09/02 17:26:58;;;;;;;2.90;2.43;;;28.60;99.90;;;;;;5115149;28;20806;-80
2023/09/02 17:33:00;;;;;;;3.17;2.87;;;28.60;99.90;;;;;;5114367;28;20436;-82
2023/09/02 17:39:05;;;;;;;4.73;2.70;;;28.20;99.90;;;;;;5099891;28;20439;-82
2023/09/02 17:42:05;;;;;;;2.60;2.40;;;28.00;99.90;;;;;;5091680;28;20444;-82
2023/09/02 17:48:14;;;;;;;2.80;2.60;;;27.80;99.90;;;;;;5112319;28;20444;-85
2023/09/02 17:50:59;;;;;;;2.60;2.40;;;27.60;99.90;;;;;;5110067;28;20432;-78
2023/09/02 17:54:16;;;;;;;2.80;2.53;;;27.50;99.90;;;;;;5079997;28;20448;-82
2023/09/02 18:00:11;;;;;;;2.60;2.40;;;27.10;99.90;;;;;;5105119;28;20508;-81
2023/09/02 18:03:17;;;;;;;3.43;2.70;;;26.90;99.90;;;;;;5108879;28;20468;-84
2023/09/02 18:05:57;;;;;;;2.93;2.63;;;27.00;99.90;;;;;;5106899;28;20447;-82
2023/09/02 18:19:11;;;;;;;;;;;;;;;;;;;;;
2023/09/02 18:25:09;;;;;;;3.50;3.20;;;26.30;99.90;;;;;;5062294;28;20431;-82
2023/09/02 18:27:49;;;;;;;3.30;3.00;;;26.20;99.90;;;;;;5087934;28;20488;-80
2023/09/02 18:30:56;;;;;;;3.30;2.77;;;26.10;99.90;;;;;;5084206;28;20479;-80
2023/09/02 18:33:55;;;;;;;2.67;2.47;;;26.00;99.90;;;;;;5102410;28;20461;-81
2023/09/02 18:36:38;;;;;;;2.83;2.63;;;25.90;99.90;;;;;;5105811;28;20847;-81
2023/09/02 18:49:24;;;;;;;;;;;;;;;;;;;;;
2023/09/02 18:55:14;;;;;;;5.63;4.17;;;25.20;99.90;;;;;;4995241;28;20517;-82
2023/09/02 19:01:03;;;;;;;4.13;3.83;;;25.00;99.90;;;;;;5111626;28;20514;-80
2023/09/02 19:03:45;;;;;;;4.03;3.70;;;24.80;99.90;;;;;;5113717;28;20486;-81
2023/09/02 19:06:35;;;;;;;4.97;4.47;;;24.80;99.90;;;;;;5113074;28;20503;-79
2023/09/02 19:09:19;;;;;;;4.70;4.30;;;24.70;99.90;;;;;;5114248;28;20427;-78
2023/09/02 19:12:03;;;;;;;9.00;4.10;;;24.70;99.90;;;;;;5114717;28;20439;-80
2023/09/02 19:14:32;;;;;;;6.03;5.43;;;24.60;99.90;;;;;;5111733;28;20432;-80
2023/09/02 19:17:08;;;;;;;6.27;5.67;;;24.50;99.90;;;;;;5107664;28;20484;-82
2023/09/02 19:19:41;;;;;;;4.33;3.97;;;24.40;99.90;;;;;;5106898;28;20475;-80
2023/09/02 19:22:35;;;;;;;4.30;3.90;;;24.20;99.90;;;;;;5106576;28;20452;-78
2023/09/02 19:25:29;;;;;;;4.70;4.30;;;24.10;99.90;;;;;;5107391;28;20440;-79
2023/09/02 19:28:23;;;;;;;;;;;;;;;;;;;;;
2023/09/02 19:31:33;;;;;;;4.83;4.43;;;23.90;99.90;;;;;;5110270;28;20432;-78
2023/09/02 19:34:24;;;;;;;6.27;5.77;;;23.90;99.90;;;;;;5112272;28;20819;-80
2023/09/02 19:37:09;;;;;;;5.53;4.93;;;23.80;99.90;;;;;;5108573;28;20498;-80
2023/09/02 19:39:52;;;;;;;9.37;5.97;;;23.70;99.90;;;;;;5105949;28;20589;-79
2023/09/02 19:42:48;;;;;;;6.70;5.20;;;23.70;99.90;;;;;;5106212;28;20431;-80
2023/09/02 19:45:43;;;;;;;5.97;5.07;;;23.60;99.90;;;;;;5105060;28;20428;-80
2023/09/02 19:48:28;;;;;;;33.80;30.73;;;23.50;99.90;;;;;;5105870;28;20498;-81
2023/09/02 19:51:31;;;;;;;154.63;137.53;;;23.50;99.90;;;;;;5108631;28;20436;-82
2023/09/02 19:54:20;;;;;;;46.90;42.00;;;23.40;99.90;;;;;;5090674;28;20524;-80
2023/09/02 19:56:59;;;;;;;10.20;9.13;;;23.40;99.90;;;;;;5089613;28;20525;-79
2023/09/02 20:02:45;;;;;;;7.77;6.83;;;23.20;99.90;;;;;;5083810;28;20425;-79
2023/09/02 20:11:45;;;;;;;7.20;6.60;;;22.90;99.90;;;;;;5084977;28;20436;-80
2023/09/02 20:14:32;;;;;;;8.20;7.40;;;22.90;99.90;;;;;;5089427;28;20496;-79
2023/09/02 20:17:31;;;;;;;7.27;6.57;;;22.60;99.90;;;;;;5089884;28;20464;-80
2023/09/02 20:23:51;;;;;;;7.10;6.50;;;22.60;99.90;;;;;;5088797;28;20504;-79
2023/09/02 20:29:25;;;;;;;7.83;7.03;;;22.40;99.90;;;;;;5081104;28;20489;-79
2023/09/02 20:38:33;;;;;;;7.63;6.90;;;22.10;99.90;;;;;;5009848;28;20488;-79
2023/09/02 20:41:24;;;;;;;7.37;6.67;;;22.10;99.90;;;;;;5005846;28;20480;-82
2023/09/02 20:44:28;;;;;;;6.67;6.07;;;22.10;99.90;;;;;;5069036;28;20476;-79
2023/09/02 20:47:10;;;;;;;6.63;6.03;;;22.00;99.90;;;;;;5094458;28;20468;-80
2023/09/02 20:50:05;;;;;;;9.33;6.80;;;22.00;99.90;;;;;;5095659;28;20440;-80
2023/09/02 20:52:53;;;;;;;9.73;6.80;;;21.90;99.90;;;;;;5094847;28;20462;-75
2023/09/02 21:02:09;;;;;;;7.30;6.60;;;21.70;99.90;;;;;;5062350;28;20503;-80
2023/09/02 21:05:00;;;;;;;6.70;6.20;;;21.60;99.90;;;;;;5096181;28;20452;-81
2023/09/02 21:11:01;;;;;;;;;;;;;;;;;;;;;
2023/09/02 21:13:43;;;;;;;9.40;6.37;;;21.40;99.90;;;;;;5096416;28;20424;-79
2023/09/02 21:16:34;;;;;;;7.90;7.10;;;21.40;99.90;;;;;;5096425;28;20427;-80
2023/09/02 21:19:52;;;;;;;10.10;7.00;;;21.30;99.90;;;;;;5094114;28;20445;-79
2023/09/02 21:23:00;;;;;;;9.90;8.90;;;21.20;99.90;;;;;;5076418;28;20490;-80
2023/09/02 21:33:03;;;;;;;9.00;7.20;;;21.00;99.90;;;;;;5027012;28;20439;-79
2023/09/02 21:35:55;;;;;;;7.40;6.73;;;21.00;99.90;;;;;;5032819;28;20474;-78
2023/09/02 21:38:55;;;;;;;10.73;6.97;;;21.00;99.90;;;;;;5113752;28;20452;-79
2023/09/02 21:42:13;;;;;;;44.83;39.27;;;20.90;99.90;;;;;;5095816;28;20489;-79
2023/09/02 21:45:25;;;;;;;40.63;33.97;;;20.90;99.90;;;;;;5112804;28;20435;-80
2023/09/02 21:48:40;;;;;;;9.33;8.47;;;20.80;99.90;;;;;;5104866;28;20542;-81
2023/09/02 21:51:40;;;;;;;;;;;;;;;;;;;;;
2023/09/02 21:54:37;;;;;;;6.90;6.20;;;20.70;99.90;;;;;;5104964;28;20439;-80
2023/09/02 21:57:16;;;;;;;8.20;6.50;;;20.60;99.90;;;;;;5101836;28;20998;-80
2023/09/02 22:00:11;;;;;;;8.13;7.33;;;20.50;99.90;;;;;;5103245;28;20454;-82
2023/09/02 22:03:03;;;;;;;7.57;6.90;;;20.40;99.90;;;;;;5099883;28;20436;-81
2023/09/02 22:09:15;;;;;;;;;;;;;;;;;;;;;
2023/09/02 22:12:18;;;;;;;10.33;5.97;;;20.10;99.90;;;;;;5102031;28;20440;-82
2023/09/02 22:15:04;;;;;;;7.00;6.27;;;20.30;99.90;;;;;;5089922;28;20452;-81